Time;durP1;ratioP1;P1;durP2;ratioP2;P2;SDS_P1;SDS_P2;PMS_P1;PMS_P2;Temp;Humidity;BMP_temperature;BMP_pressure;BME280_temperature;BME280_humidity;BME280_pressure;Samples;Min_cycle;Max_cycle;Signal;HPM_P1;HPM_P2
2022/11/21 00:01:37;;;;;;;6.57;3.00;;;5.40;99.90;;;;;;477256;249;27522;-66
2022/11/21 00:03:39;;;;;;;5.82;2.65;;;5.40;99.90;;;;;;477251;249;27537;-67
2022/11/21 00:05:43;;;;;;;7.50;3.15;;;5.40;99.90;;;;;;477229;249;27511;-65
2022/11/21 00:07:48;;;;;;;5.05;2.83;;;5.50;99.90;;;;;;477169;249;28759;-67
2022/11/21 00:09:45;;;;;;;13.02;4.15;;;5.50;99.90;;;;;;476904;249;27952;-66
2022/11/21 00:11:46;;;;;;;8.73;3.08;;;5.50;99.90;;;;;;477251;249;28057;-68
2022/11/21 00:13:48;;;;;;;8.52;3.60;;;5.50;99.90;;;;;;477228;249;27516;-66
2022/11/21 00:15:49;;;;;;;8.50;3.55;;;5.60;99.90;;;;;;477215;249;27520;-66
2022/11/21 00:17:50;;;;;;;8.00;2.35;;;5.60;99.90;;;;;;477224;249;27532;-65
2022/11/21 00:19:51;;;;;;;3.58;2.72;;;5.60;99.90;;;;;;477253;249;27628;-67
2022/11/21 00:21:53;;;;;;;9.68;3.08;;;5.60;99.90;;;;;;477238;249;27635;-67
2022/11/21 00:23:54;;;;;;;3.35;2.53;;;5.70;99.90;;;;;;477204;249;27679;-65
2022/11/21 00:25:55;;;;;;;3.75;2.30;;;5.70;99.90;;;;;;477222;249;27539;-66
2022/11/21 00:27:57;;;;;;;4.57;2.60;;;5.70;99.90;;;;;;477246;249;27505;-66
2022/11/21 00:29:58;;;;;;;7.55;2.83;;;5.70;99.90;;;;;;477263;249;28037;-66
2022/11/21 00:31:59;;;;;;;5.30;2.67;;;5.70;99.90;;;;;;477244;249;28106;-67
2022/11/21 00:34:00;;;;;;;4.30;2.78;;;5.70;99.90;;;;;;477228;249;27668;-66
2022/11/21 00:36:02;;;;;;;4.80;2.78;;;5.70;99.90;;;;;;477225;249;27645;-66
2022/11/21 00:38:03;;;;;;;7.53;2.28;;;5.70;99.90;;;;;;477212;249;27534;-65
2022/11/21 00:40:04;;;;;;;6.03;2.45;;;5.70;99.90;;;;;;477270;249;27688;-66
2022/11/21 00:42:05;;;;;;;7.53;2.70;;;5.70;99.90;;;;;;477257;249;27535;-68
2022/11/21 00:44:07;;;;;;;6.03;2.70;;;5.70;99.90;;;;;;477251;249;27506;-66
2022/11/21 00:46:08;;;;;;;2.95;2.00;;;5.70;99.90;;;;;;477220;249;27534;-66
2022/11/21 00:48:09;;;;;;;6.30;2.25;;;5.60;99.90;;;;;;477182;249;28077;-65
2022/11/21 00:50:10;;;;;;;4.82;2.00;;;5.60;99.90;;;;;;477245;249;27965;-65
2022/11/21 00:52:12;;;;;;;6.93;2.05;;;5.60;99.90;;;;;;477246;249;27687;-67
2022/11/21 00:54:13;;;;;;;2.75;2.00;;;5.60;99.90;;;;;;477245;249;27595;-65
2022/11/21 00:56:14;;;;;;;4.03;1.92;;;5.60;99.90;;;;;;477245;249;27638;-66
2022/11/21 00:58:15;;;;;;;2.53;1.90;;;5.60;99.90;;;;;;477236;249;27530;-65
2022/11/21 01:00:17;;;;;;;6.68;2.00;;;5.60;99.90;;;;;;477294;249;27507;-65
2022/11/21 01:02:18;;;;;;;4.47;2.22;;;5.60;99.90;;;;;;477287;249;27636;-67
2022/11/21 01:04:19;;;;;;;1.90;1.80;;;5.60;99.90;;;;;;477231;249;27579;-66
2022/11/21 01:06:20;;;;;;;5.03;1.80;;;5.60;99.90;;;;;;477113;249;27533;-66
2022/11/21 01:08:22;;;;;;;3.45;1.83;;;5.50;99.90;;;;;;477122;249;27548;-67
2022/11/21 01:10:23;;;;;;;3.65;1.70;;;5.50;99.90;;;;;;477108;249;27633;-65
2022/11/21 01:12:24;;;;;;;2.72;1.60;;;5.50;99.90;;;;;;477089;249;27667;-66
2022/11/21 01:14:25;;;;;;;1.75;1.65;;;5.50;99.90;;;;;;477235;249;27521;-66
2022/11/21 01:16:27;;;;;;;2.62;1.85;;;5.40;99.90;;;;;;477203;249;27532;-66
2022/11/21 01:18:28;;;;;;;2.83;1.70;;;5.40;99.90;;;;;;477264;249;28024;-69
2022/11/21 01:20:29;;;;;;;1.85;1.75;;;5.40;99.90;;;;;;477240;249;28039;-66
2022/11/21 01:22:30;;;;;;;2.67;1.65;;;5.40;99.90;;;;;;477231;249;28244;-66
2022/11/21 01:24:32;;;;;;;1.98;1.73;;;5.40;99.90;;;;;;477215;249;27533;-65
2022/11/21 01:26:33;;;;;;;2.55;1.60;;;5.40;99.90;;;;;;477247;249;27508;-66
2022/11/21 01:28:34;;;;;;;3.90;2.00;;;5.40;99.90;;;;;;477234;249;27532;-68
2022/11/21 01:30:35;;;;;;;2.62;1.95;;;5.40;99.90;;;;;;477235;249;27617;-66
2022/11/21 01:32:37;;;;;;;5.57;2.22;;;5.40;99.90;;;;;;477228;249;27624;-67
2022/11/21 01:34:38;;;;;;;4.32;1.85;;;5.40;99.90;;;;;;477212;249;27504;-65
2022/11/21 01:36:39;;;;;;;5.78;2.10;;;5.50;99.90;;;;;;477147;249;27507;-65
2022/11/21 01:38:40;;;;;;;4.40;2.28;;;5.50;99.90;;;;;;477248;249;27536;-68
2022/11/21 01:40:42;;;;;;;4.97;2.42;;;5.60;99.90;;;;;;477224;247;28063;-66
2022/11/21 01:42:43;;;;;;;3.22;1.83;;;5.60;99.90;;;;;;477229;249;28025;-65
2022/11/21 01:44:44;;;;;;;5.03;2.03;;;5.60;99.90;;;;;;477205;249;27971;-66
2022/11/21 01:46:45;;;;;;;4.20;1.75;;;5.60;99.90;;;;;;477247;249;27497;-66
2022/11/21 01:48:47;;;;;;;4.32;2.22;;;5.60;99.90;;;;;;477247;249;27545;-68
2022/11/21 01:50:48;;;;;;;4.93;2.20;;;5.60;99.90;;;;;;477218;249;27500;-66
2022/11/21 01:52:49;;;;;;;1.92;1.83;;;5.60;99.90;;;;;;477235;249;27536;-66
2022/11/21 01:54:50;;;;;;;8.32;2.45;;;5.70;99.90;;;;;;477205;249;27508;-65
2022/11/21 01:56:52;;;;;;;4.90;2.22;;;5.70;99.90;;;;;;477230;249;27617;-66
2022/11/21 01:58:53;;;;;;;4.07;3.10;;;5.70;99.90;;;;;;477257;249;27543;-69
2022/11/21 02:00:54;;;;;;;2.20;2.00;;;5.70;99.90;;;;;;477225;249;27576;-65
2022/11/21 02:02:55;;;;;;;3.75;1.95;;;5.70;99.90;;;;;;477205;249;28086;-66
2022/11/21 02:04:57;;;;;;;6.35;2.05;;;5.70;99.90;;;;;;477194;249;29056;-66
2022/11/21 02:06:58;;;;;;;5.55;2.58;;;5.70;99.90;;;;;;477255;249;28013;-65
2022/11/21 02:08:59;;;;;;;6.87;2.30;;;5.70;99.90;;;;;;477242;249;27543;-68
2022/11/21 02:11:00;;;;;;;7.50;2.50;;;5.70;99.90;;;;;;477242;249;27498;-66
2022/11/21 02:13:02;;;;;;;2.42;2.22;;;5.70;99.90;;;;;;477205;249;27551;-66
2022/11/21 02:15:03;;;;;;;3.25;2.00;;;5.70;99.90;;;;;;477207;249;27548;-65
2022/11/21 02:17:04;;;;;;;2.25;1.75;;;5.70;99.90;;;;;;477241;249;27500;-66
2022/11/21 02:19:05;;;;;;;2.87;2.10;;;5.60;99.90;;;;;;477246;249;27533;-67
2022/11/21 02:21:07;;;;;;;5.12;2.10;;;5.60;99.90;;;;;;477239;249;27504;-66
2022/11/21 02:23:08;;;;;;;6.87;2.20;;;5.70;99.90;;;;;;477029;249;28049;-65
2022/11/21 02:25:09;;;;;;;2.70;1.60;;;5.60;99.90;;;;;;477238;249;28106;-68
2022/11/21 02:27:11;;;;;;;9.00;2.58;;;5.60;99.90;;;;;;477248;249;27509;-65
2022/11/21 02:29:12;;;;;;;8.40;2.15;;;5.60;99.90;;;;;;477239;249;27648;-66
2022/11/21 02:31:13;;;;;;;2.87;1.90;;;5.60;99.90;;;;;;477221;249;27498;-65
2022/11/21 02:33:14;;;;;;;3.58;1.90;;;5.60;99.90;;;;;;477207;249;27534;-66
2022/11/21 02:35:16;;;;;;;2.25;1.92;;;5.60;99.90;;;;;;477240;249;27553;-69
2022/11/21 02:37:17;;;;;;;2.78;1.70;;;5.50;99.90;;;;;;477252;249;27515;-66
2022/11/21 02:39:18;;;;;;;2.22;1.98;;;5.50;99.90;;;;;;477248;249;27616;-67
2022/11/21 02:41:25;;;;;;;2.42;1.60;;;5.50;99.90;;;;;;477258;249;27940;-66
2022/11/21 02:43:23;;;;;;;4.80;1.70;;;5.50;99.90;;;;;;477134;249;27502;-66
2022/11/21 02:45:25;;;;;;;2.00;1.55;;;5.50;99.90;;;;;;477222;249;27620;-65
2022/11/21 02:47:26;;;;;;;2.53;1.60;;;5.50;99.90;;;;;;477268;249;27583;-66
2022/11/21 02:49:27;;;;;;;2.10;1.90;;;5.50;99.90;;;;;;477199;249;27578;-66
2022/11/21 02:51:28;;;;;;;1.75;1.65;;;5.50;99.90;;;;;;477245;249;27533;-66
2022/11/21 02:53:30;;;;;;;4.93;2.03;;;5.50;99.90;;;;;;477222;249;27931;-66
2022/11/21 02:55:31;;;;;;;1.65;1.55;;;5.50;99.90;;;;;;477224;249;28073;-66
2022/11/21 02:57:32;;;;;;;1.60;1.50;;;5.50;99.90;;;;;;477230;249;28119;-68
2022/11/21 02:59:33;;;;;;;1.87;1.73;;;5.50;99.90;;;;;;477232;249;27497;-67
2022/11/21 03:01:35;;;;;;;1.70;1.30;;;5.50;99.90;;;;;;477227;249;27540;-67
2022/11/21 03:03:36;;;;;;;3.67;1.98;;;5.50;99.90;;;;;;477190;249;27610;-66
2022/11/21 03:05:37;;;;;;;2.37;1.80;;;5.50;99.90;;;;;;477245;249;27644;-66
2022/11/21 03:07:38;;;;;;;1.65;1.55;;;5.50;99.90;;;;;;477250;249;27543;-66
2022/11/21 03:09:40;;;;;;;1.60;1.50;;;5.50;99.90;;;;;;477248;249;27604;-65
2022/11/21 03:11:41;;;;;;;1.52;1.42;;;5.50;99.90;;;;;;477243;249;27536;-66
2022/11/21 03:13:42;;;;;;;2.87;1.50;;;5.50;99.90;;;;;;477237;249;27613;-65
2022/11/21 03:15:43;;;;;;;1.73;1.62;;;5.50;99.90;;;;;;477242;249;27961;-66
2022/11/21 03:17:45;;;;;;;3.22;2.03;;;5.50;99.90;;;;;;477199;249;28024;-67
2022/11/21 03:19:46;;;;;;;1.73;1.48;;;5.50;99.90;;;;;;477229;249;27942;-66
2022/11/21 03:21:47;;;;;;;3.17;1.67;;;5.50;99.90;;;;;;477239;249;27531;-66
2022/11/21 03:23:49;;;;;;;2.10;1.60;;;5.50;99.90;;;;;;477231;249;27600;-65
2022/11/21 03:25:50;;;;;;;5.00;1.62;;;5.50;99.90;;;;;;477250;249;27484;-66
2022/11/21 03:27:52;;;;;;;1.95;1.80;;;5.50;99.90;;;;;;477265;249;27529;-66
2022/11/21 03:29:52;;;;;;;3.40;1.58;;;5.50;99.90;;;;;;477204;249;27552;-66
2022/11/21 03:31:54;;;;;;;2.75;1.62;;;5.50;99.90;;;;;;477205;249;27537;-65
2022/11/21 03:33:55;;;;;;;1.45;1.35;;;5.50;99.90;;;;;;477226;249;27975;-68
2022/11/21 03:35:56;;;;;;;1.50;1.40;;;5.50;99.90;;;;;;477251;249;27958;-66
2022/11/21 03:37:57;;;;;;;3.42;1.80;;;5.50;99.90;;;;;;477236;249;28005;-66
2022/11/21 03:39:59;;;;;;;3.20;1.85;;;5.50;99.90;;;;;;477243;249;28027;-66
2022/11/21 03:42:00;;;;;;;1.62;1.52;;;5.50;99.90;;;;;;477221;249;27556;-66
2022/11/21 03:44:01;;;;;;;4.00;1.60;;;5.50;99.90;;;;;;477249;249;27647;-68
2022/11/21 03:46:02;;;;;;;1.95;1.70;;;5.50;99.90;;;;;;477247;249;27553;-66
2022/11/21 03:48:04;;;;;;;2.87;1.70;;;5.50;99.90;;;;;;477271;249;27510;-66
2022/11/21 03:50:05;;;;;;;2.75;1.73;;;5.50;99.90;;;;;;477240;249;27513;-65
2022/11/21 03:52:06;;;;;;;1.70;1.60;;;5.50;99.90;;;;;;477275;249;27524;-66
2022/11/21 03:54:07;;;;;;;3.30;1.77;;;5.50;99.90;;;;;;477274;249;27643;-70
2022/11/21 03:56:09;;;;;;;2.55;1.92;;;5.50;99.90;;;;;;477252;249;27957;-65
2022/11/21 03:58:10;;;;;;;2.00;1.90;;;5.50;99.90;;;;;;477234;249;28035;-66
2022/11/21 04:00:11;;;;;;;2.33;1.95;;;5.50;99.90;;;;;;477233;249;28066;-65
2022/11/21 04:02:12;;;;;;;1.80;1.70;;;5.50;99.90;;;;;;477207;249;27632;-65
2022/11/21 04:04:14;;;;;;;4.07;1.90;;;5.50;99.90;;;;;;477257;249;27544;-69
2022/11/21 04:06:15;;;;;;;3.15;2.08;;;5.50;99.90;;;;;;477257;249;27622;-66
2022/11/21 04:08:16;;;;;;;1.98;1.85;;;5.50;99.90;;;;;;477246;249;27524;-66
2022/11/21 04:10:19;;;;;;;4.45;1.85;;;5.50;99.90;;;;;;477206;249;27495;-65
2022/11/21 04:12:19;;;;;;;4.60;2.40;;;5.60;99.90;;;;;;477125;249;27537;-65
2022/11/21 04:14:20;;;;;;;3.90;2.15;;;5.60;99.90;;;;;;477257;249;27536;-68
2022/11/21 04:16:21;;;;;;;3.62;2.10;;;5.50;99.90;;;;;;477221;249;27549;-66
2022/11/21 04:18:22;;;;;;;5.80;2.22;;;5.50;99.90;;;;;;477247;249;28070;-66
2022/11/21 04:20:24;;;;;;;3.37;2.70;;;5.60;99.90;;;;;;477243;249;28053;-65
2022/11/21 04:22:25;;;;;;;2.40;2.20;;;5.50;99.90;;;;;;477260;249;27960;-66
2022/11/21 04:24:26;;;;;;;4.22;2.45;;;5.60;99.90;;;;;;477261;249;27622;-67
2022/11/21 04:26:27;;;;;;;2.58;2.37;;;5.60;99.90;;;;;;477230;249;27589;-66
2022/11/21 04:28:29;;;;;;;2.97;2.35;;;5.60;99.90;;;;;;477238;249;27551;-66
2022/11/21 04:30:30;;;;;;;6.50;2.33;;;5.60;99.90;;;;;;477246;249;27593;-66
2022/11/21 04:32:31;;;;;;;5.45;3.03;;;5.50;99.90;;;;;;477220;249;27520;-65
2022/11/21 04:34:32;;;;;;;3.17;2.30;;;5.60;99.90;;;;;;477266;249;27705;-68
2022/11/21 04:36:34;;;;;;;3.37;2.30;;;5.60;99.90;;;;;;477227;249;27504;-65
2022/11/21 04:38:35;;;;;;;4.35;2.70;;;5.50;99.90;;;;;;477228;249;27542;-65
2022/11/21 04:40:36;;;;;;;2.12;2.00;;;5.50;99.90;;;;;;477216;249;28759;-65
2022/11/21 04:42:37;;;;;;;4.80;2.30;;;5.50;99.90;;;;;;477263;249;27971;-66
2022/11/21 04:44:39;;;;;;;2.40;2.20;;;5.60;99.90;;;;;;477261;249;28095;-68
2022/11/21 04:46:40;;;;;;;4.65;2.53;;;5.50;99.90;;;;;;477230;249;27499;-65
2022/11/21 04:48:41;;;;;;;6.40;2.42;;;5.50;99.90;;;;;;477238;249;27615;-66
2022/11/21 04:50:42;;;;;;;4.22;2.60;;;5.50;99.90;;;;;;477191;249;27606;-65
2022/11/21 04:52:44;;;;;;;6.10;2.40;;;5.50;99.90;;;;;;477256;249;27606;-66
2022/11/21 04:54:45;;;;;;;4.32;2.40;;;5.50;99.90;;;;;;477252;249;27547;-67
2022/11/21 04:56:46;;;;;;;6.80;2.42;;;5.50;99.90;;;;;;477224;249;27620;-65
2022/11/21 04:58:47;;;;;;;5.37;2.47;;;5.50;99.90;;;;;;477252;249;27671;-66
2022/11/21 05:00:49;;;;;;;4.07;2.12;;;5.50;99.90;;;;;;477217;249;28619;-66
2022/11/21 05:02:50;;;;;;;5.45;2.28;;;5.50;99.90;;;;;;477270;249;27956;-65
2022/11/21 05:04:51;;;;;;;10.85;2.65;;;5.40;99.90;;;;;;477234;249;28023;-67
2022/11/21 05:06:52;;;;;;;7.05;2.70;;;5.40;99.90;;;;;;477223;249;27540;-65
2022/11/21 05:08:54;;;;;;;3.90;2.17;;;5.40;99.90;;;;;;477223;249;27554;-66
2022/11/21 05:13:20;;;;;;;3.78;2.15;;;5.40;99.90;;;;;;477269;249;27504;-65
2022/11/21 05:15:21;;;;;;;2.35;2.15;;;5.40;99.90;;;;;;477229;249;28000;-67
2022/11/21 05:17:23;;;;;;;2.42;2.20;;;5.30;99.90;;;;;;477224;249;27543;-65
2022/11/21 05:19:24;;;;;;;2.60;2.40;;;5.20;99.90;;;;;;477222;249;27533;-65
2022/11/21 05:21:25;;;;;;;6.95;2.33;;;5.20;99.90;;;;;;477186;249;27543;-66
2022/11/21 05:23:26;;;;;;;4.80;2.28;;;5.20;99.90;;;;;;477243;249;27623;-64
2022/11/21 05:25:28;;;;;;;2.53;2.10;;;5.20;99.90;;;;;;477240;249;27536;-67
2022/11/21 05:27:29;;;;;;;2.90;2.08;;;5.30;99.90;;;;;;477215;249;27492;-66
2022/11/21 05:29:30;;;;;;;3.87;2.40;;;5.30;99.90;;;;;;477245;249;27571;-65
2022/11/21 05:31:31;;;;;;;3.12;2.30;;;5.30;99.90;;;;;;477235;249;28002;-67
2022/11/21 05:33:33;;;;;;;2.80;2.17;;;5.30;99.90;;;;;;477239;249;27548;-64
2022/11/21 05:35:34;;;;;;;2.42;2.22;;;5.30;99.90;;;;;;477236;249;28028;-65
2022/11/21 05:37:35;;;;;;;4.50;2.25;;;5.30;99.90;;;;;;477255;249;27956;-64
2022/11/21 05:39:36;;;;;;;2.50;2.30;;;5.40;99.90;;;;;;477244;249;27995;-64
2022/11/21 05:41:38;;;;;;;2.97;2.60;;;5.40;99.90;;;;;;477249;249;27575;-67
2022/11/21 05:43:45;;;;;;;4.00;2.05;;;5.40;99.90;;;;;;477261;249;27599;-64
2022/11/21 05:45:46;;;;;;;6.03;2.30;;;5.40;99.90;;;;;;477240;249;27540;-66
2022/11/21 05:47:47;;;;;;;4.68;2.37;;;5.40;99.90;;;;;;477240;249;27507;-63
2022/11/21 05:49:48;;;;;;;4.78;2.67;;;5.40;99.90;;;;;;477243;249;27537;-66
2022/11/21 05:51:50;;;;;;;3.08;2.55;;;5.40;99.90;;;;;;477210;249;27520;-65
2022/11/21 05:53:51;;;;;;;6.90;3.30;;;5.40;99.90;;;;;;477235;249;27529;-65
2022/11/21 05:55:52;;;;;;;6.05;2.70;;;5.40;99.90;;;;;;477237;249;27558;-67
2022/11/21 05:57:53;;;;;;;3.90;2.70;;;5.40;99.90;;;;;;477225;249;27512;-66
2022/11/21 05:59:55;;;;;;;9.23;2.90;;;5.40;99.90;;;;;;477207;249;28099;-67
2022/11/21 06:04:15;;;;;;;5.10;2.85;;;5.40;99.90;;;;;;477258;249;27967;-67
2022/11/21 06:06:16;;;;;;;6.85;2.85;;;5.40;99.90;;;;;;477261;249;28108;-67
2022/11/21 06:08:18;;;;;;;5.78;2.35;;;5.30;99.90;;;;;;477250;249;27967;-65
2022/11/21 06:10:19;;;;;;;5.15;2.50;;;5.30;99.90;;;;;;477233;249;27647;-66
2022/11/21 06:12:20;;;;;;;3.45;2.67;;;5.30;99.90;;;;;;477222;249;27525;-66
2022/11/21 06:14:21;;;;;;;4.55;2.55;;;5.30;99.90;;;;;;477229;249;27501;-65
2022/11/21 06:16:23;;;;;;;4.45;2.58;;;5.30;99.90;;;;;;477219;249;27548;-68
2022/11/21 06:18:24;;;;;;;2.60;2.40;;;5.30;99.90;;;;;;477229;249;27566;-66
2022/11/21 06:20:25;;;;;;;7.28;2.97;;;5.30;99.90;;;;;;477190;249;27529;-66
2022/11/21 06:22:26;;;;;;;3.70;2.10;;;5.30;99.90;;;;;;477210;249;27881;-66
2022/11/21 06:24:28;;;;;;;5.82;3.28;;;5.30;99.90;;;;;;477249;249;27612;-65
2022/11/21 06:26:29;;;;;;;5.87;3.35;;;5.30;99.90;;;;;;477234;249;27944;-67
2022/11/21 06:28:30;;;;;;;6.15;3.28;;;5.30;99.90;;;;;;477210;249;28064;-65
2022/11/21 06:30:31;;;;;;;6.53;2.53;;;5.30;99.90;;;;;;477204;249;28039;-70
2022/11/21 06:32:33;;;;;;;2.45;2.25;;;5.30;99.90;;;;;;477256;249;27579;-66
2022/11/21 06:34:34;;;;;;;4.12;2.70;;;5.30;99.90;;;;;;477219;249;27496;-66
2022/11/21 06:36:35;;;;;;;4.43;2.60;;;5.20;99.90;;;;;;477209;249;27626;-67
2022/11/21 06:38:36;;;;;;;5.68;2.10;;;5.20;99.90;;;;;;477213;249;27481;-66
2022/11/21 06:40:38;;;;;;;5.40;2.72;;;5.30;99.90;;;;;;477194;249;27583;-66
2022/11/21 06:42:39;;;;;;;3.87;3.05;;;5.20;99.90;;;;;;477256;249;27639;-69
2022/11/21 06:44:40;;;;;;;4.95;2.70;;;5.20;99.90;;;;;;477263;249;27497;-66
2022/11/21 06:46:41;;;;;;;4.47;2.53;;;5.20;99.90;;;;;;477262;249;27599;-66
2022/11/21 06:48:43;;;;;;;5.97;3.12;;;5.20;99.90;;;;;;477249;249;27992;-66
2022/11/21 06:50:44;;;;;;;3.87;2.37;;;5.20;99.90;;;;;;477237;249;28000;-66
2022/11/21 06:52:45;;;;;;;8.18;3.20;;;5.10;99.90;;;;;;477272;249;28068;-68
2022/11/21 06:54:46;;;;;;;7.18;3.28;;;5.10;99.90;;;;;;477257;249;27592;-65
2022/11/21 06:56:48;;;;;;;3.33;2.85;;;5.10;99.90;;;;;;477230;249;27544;-67
2022/11/21 06:58:49;;;;;;;3.25;2.58;;;5.10;99.90;;;;;;477212;249;27487;-66
2022/11/21 07:00:50;;;;;;;5.50;3.35;;;5.10;99.90;;;;;;477259;249;27495;-66
2022/11/21 07:02:51;;;;;;;5.12;3.60;;;5.10;99.90;;;;;;477265;249;27636;-67
2022/11/21 07:04:53;;;;;;;4.10;2.53;;;5.10;99.90;;;;;;477241;249;27536;-66
2022/11/21 07:06:54;;;;;;;2.85;2.53;;;5.10;99.90;;;;;;477223;249;27627;-68
2022/11/21 07:08:55;;;;;;;6.35;2.40;;;5.10;99.90;;;;;;477228;249;27506;-66
2022/11/21 07:10:56;;;;;;;5.20;2.83;;;5.10;99.90;;;;;;477269;249;28063;-68
2022/11/21 07:15:17;;;;;;;3.45;2.90;;;5.10;99.90;;;;;;477231;249;28701;-65
2022/11/21 07:17:19;;;;;;;7.32;2.97;;;5.10;99.90;;;;;;477263;249;27969;-65
2022/11/21 07:19:20;;;;;;;4.40;2.90;;;5.10;99.90;;;;;;477244;249;27615;-67
2022/11/21 07:21:21;;;;;;;5.65;2.85;;;5.00;99.90;;;;;;477243;249;27499;-66
2022/11/21 07:23:22;;;;;;;9.95;3.20;;;5.00;99.90;;;;;;477252;249;27664;-66
2022/11/21 07:25:24;;;;;;;4.43;2.90;;;4.90;99.90;;;;;;477238;249;27554;-65
2022/11/21 07:27:25;;;;;;;3.33;2.70;;;5.00;99.90;;;;;;477248;249;27513;-64
2022/11/21 07:29:26;;;;;;;5.12;3.20;;;5.00;99.90;;;;;;477146;249;27655;-68
2022/11/21 07:31:27;;;;;;;2.58;2.35;;;5.00;99.90;;;;;;477280;249;27511;-64
2022/11/21 07:33:29;;;;;;;4.93;2.95;;;4.90;99.90;;;;;;477261;249;27537;-64
2022/11/21 07:35:30;;;;;;;4.60;2.90;;;4.90;99.90;;;;;;477277;249;28066;-64
2022/11/21 07:37:31;;;;;;;3.53;2.80;;;4.90;99.90;;;;;;477256;249;28056;-67
2022/11/21 07:39:32;;;;;;;2.80;2.60;;;4.80;99.90;;;;;;477271;249;28052;-66
2022/11/21 07:41:34;;;;;;;4.40;2.45;;;4.80;99.90;;;;;;477256;249;28146;-64
2022/11/21 07:43:35;;;;;;;4.00;2.47;;;4.80;99.90;;;;;;477250;249;27656;-64
2022/11/21 07:45:36;;;;;;;5.90;2.40;;;4.70;99.90;;;;;;477239;249;27495;-64
2022/11/21 07:47:37;;;;;;;3.20;2.30;;;4.70;99.90;;;;;;477279;249;27580;-64
2022/11/21 07:49:39;;;;;;;3.40;2.60;;;4.70;99.90;;;;;;477260;249;27612;-66
2022/11/21 07:51:40;;;;;;;4.35;2.65;;;4.70;99.90;;;;;;477225;249;27623;-64
2022/11/21 07:53:41;;;;;;;5.75;3.10;;;4.70;99.90;;;;;;477213;249;27655;-65
2022/11/21 07:55:42;;;;;;;4.40;2.40;;;4.70;99.90;;;;;;477226;249;27542;-64
2022/11/21 07:57:44;;;;;;;4.82;2.75;;;4.60;99.90;;;;;;477234;249;27517;-64
2022/11/21 07:59:45;;;;;;;5.03;2.75;;;4.70;99.90;;;;;;477243;249;27536;-66
2022/11/21 08:01:46;;;;;;;2.80;2.60;;;4.70;99.90;;;;;;477221;249;28031;-64
2022/11/21 08:03:47;;;;;;;10.75;2.75;;;4.70;99.90;;;;;;477209;249;28007;-64
2022/11/21 08:05:49;;;;;;;4.32;2.55;;;4.70;99.90;;;;;;477213;249;28148;-64
2022/11/21 08:07:50;;;;;;;3.50;2.70;;;4.70;99.90;;;;;;477101;249;27502;-64
2022/11/21 08:09:51;;;;;;;6.68;2.70;;;4.70;99.90;;;;;;477235;249;27627;-66
2022/11/21 08:11:52;;;;;;;5.00;2.83;;;4.70;99.90;;;;;;477243;249;27536;-64
2022/11/21 08:13:54;;;;;;;5.25;2.50;;;4.70;99.90;;;;;;477238;247;27524;-64
2022/11/21 08:15:55;;;;;;;2.75;2.47;;;4.70;99.90;;;;;;477261;249;27561;-64
2022/11/21 08:17:56;;;;;;;4.30;2.75;;;4.80;99.90;;;;;;477227;249;27528;-64
2022/11/21 08:20:01;;;;;;;5.35;2.80;;;4.80;99.90;;;;;;477250;249;27622;-65
2022/11/21 08:21:59;;;;;;;3.72;2.50;;;4.80;99.90;;;;;;476859;249;27488;-64
2022/11/21 08:24:00;;;;;;;4.85;2.47;;;4.90;99.90;;;;;;477230;249;27533;-64
2022/11/21 08:26:01;;;;;;;4.90;2.75;;;4.90;99.90;;;;;;477236;249;28696;-64
2022/11/21 08:28:03;;;;;;;3.55;2.42;;;5.00;99.90;;;;;;477254;249;28020;-64
2022/11/21 08:30:04;;;;;;;4.82;2.30;;;5.00;99.90;;;;;;477223;249;29139;-65
2022/11/21 08:32:05;;;;;;;5.40;2.67;;;5.10;99.90;;;;;;477245;249;27500;-64
2022/11/21 08:34:06;;;;;;;3.37;2.30;;;5.10;99.90;;;;;;477245;249;27529;-65
2022/11/21 08:36:07;;;;;;;3.12;2.25;;;5.20;99.90;;;;;;477221;249;27524;-64
2022/11/21 08:38:09;;;;;;;3.83;2.22;;;5.20;99.90;;;;;;477228;249;27517;-66
2022/11/21 08:40:10;;;;;;;2.55;2.17;;;5.20;99.90;;;;;;477224;249;27535;-67
2022/11/21 08:42:11;;;;;;;2.10;2.00;;;5.30;99.90;;;;;;477257;249;27573;-66
2022/11/21 08:44:12;;;;;;;3.80;2.53;;;5.40;99.90;;;;;;477222;249;27582;-66
2022/11/21 08:46:14;;;;;;;10.05;3.28;;;5.40;99.90;;;;;;477220;249;28164;-66
2022/11/21 08:48:15;;;;;;;4.93;2.80;;;5.50;99.90;;;;;;477190;249;28055;-66
2022/11/21 08:50:16;;;;;;;3.30;2.47;;;5.50;99.90;;;;;;477259;249;28047;-68
2022/11/21 08:52:17;;;;;;;3.55;2.45;;;5.60;99.90;;;;;;477236;249;27513;-66
2022/11/21 08:54:19;;;;;;;8.23;3.12;;;5.60;99.90;;;;;;477263;249;27541;-66
2022/11/21 08:56:20;;;;;;;3.45;2.30;;;5.60;99.90;;;;;;477219;249;27594;-66
2022/11/21 08:58:21;;;;;;;3.15;2.47;;;5.70;99.90;;;;;;477264;249;27600;-64
2022/11/21 09:00:22;;;;;;;3.90;3.12;;;5.80;99.90;;;;;;477276;249;27563;-65
2022/11/21 09:02:24;;;;;;;6.93;2.72;;;5.80;99.90;;;;;;477274;249;27502;-64
2022/11/21 09:04:25;;;;;;;6.07;2.10;;;5.70;99.90;;;;;;477243;249;27996;-64
2022/11/21 09:06:26;;;;;;;3.58;2.20;;;5.60;99.90;;;;;;477245;249;28775;-66
2022/11/21 09:08:27;;;;;;;5.53;2.25;;;5.60;99.90;;;;;;477300;249;27974;-63
2022/11/21 09:10:29;;;;;;;4.07;1.90;;;5.60;99.90;;;;;;477241;249;27623;-66
2022/11/21 09:12:30;;;;;;;6.53;2.47;;;5.80;99.90;;;;;;477260;249;27500;-64
2022/11/21 09:19:10;;;;;;;3.45;2.35;;;6.10;99.90;;;;;;477271;249;27639;-64
2022/11/21 09:21:11;;;;;;;4.70;2.10;;;6.20;99.90;;;;;;477261;249;27541;-64
2022/11/21 09:23:13;;;;;;;7.43;2.80;;;6.10;99.90;;;;;;477177;249;27599;-64
2022/11/21 09:25:14;;;;;;;3.47;2.40;;;6.10;99.90;;;;;;477212;249;27605;-66
2022/11/21 09:27:15;;;;;;;9.52;2.92;;;6.20;99.90;;;;;;477249;249;27554;-69
2022/11/21 09:29:16;;;;;;;7.68;2.75;;;6.20;99.90;;;;;;477279;249;27521;-67
2022/11/21 09:31:18;;;;;;;5.03;2.60;;;6.20;99.90;;;;;;477252;249;27973;-66
2022/11/21 09:33:19;;;;;;;6.82;2.40;;;6.40;99.90;;;;;;477245;249;28033;-64
2022/11/21 09:35:20;;;;;;;4.75;2.42;;;6.40;99.90;;;;;;477196;249;27541;-67
2022/11/21 09:37:21;;;;;;;9.18;3.10;;;6.50;99.90;;;;;;477158;249;27629;-67
2022/11/21 09:39:23;;;;;;;7.00;2.72;;;6.50;99.90;;;;;;477087;249;27525;-66
2022/11/21 09:43:43;;;;;;;6.78;2.28;;;6.70;99.90;;;;;;477056;249;27539;-63
2022/11/21 09:45:44;;;;;;;7.15;2.65;;;6.70;99.90;;;;;;477302;249;27498;-67
2022/11/21 09:47:46;;;;;;;5.72;2.30;;;6.90;99.90;;;;;;477458;249;27540;-67
2022/11/21 09:49:47;;;;;;;8.83;2.10;;;7.00;99.90;;;;;;477447;249;27937;-67
2022/11/21 09:51:48;;;;;;;4.67;2.17;;;7.10;99.90;;;;;;477393;249;28474;-67
2022/11/21 09:53:49;;;;;;;7.93;2.22;;;7.00;99.90;;;;;;477381;249;29461;-66
2022/11/21 09:55:51;;;;;;;5.68;2.22;;;7.10;99.90;;;;;;477247;249;27501;-66
2022/11/21 09:57:52;;;;;;;3.30;2.10;;;7.20;99.90;;;;;;477250;249;27535;-68
2022/11/21 09:59:53;;;;;;;2.95;2.25;;;7.10;99.90;;;;;;477229;249;28894;-66
2022/11/21 10:01:55;;;;;;;3.77;2.50;;;7.00;99.90;;;;;;477246;249;27523;-66
2022/11/21 10:03:56;;;;;;;8.43;2.77;;;6.80;99.90;;;;;;477278;249;28898;-69
2022/11/21 10:05:57;;;;;;;3.03;2.40;;;6.70;99.90;;;;;;477261;249;28025;-66
2022/11/21 10:07:58;;;;;;;2.60;2.40;;;6.70;99.90;;;;;;477242;249;29496;-66
2022/11/21 10:10:00;;;;;;;7.22;2.10;;;6.70;99.90;;;;;;477245;249;29378;-66
2022/11/21 10:14:21;;;;;;;4.30;2.70;;;6.60;99.90;;;;;;477248;249;28008;-66
2022/11/21 10:16:22;;;;;;;9.25;2.58;;;6.60;99.90;;;;;;476952;249;27520;-66
2022/11/21 10:18:23;;;;;;;4.80;2.22;;;6.70;99.90;;;;;;476916;249;27558;-66
2022/11/21 10:20:24;;;;;;;6.28;2.72;;;6.70;99.90;;;;;;477229;249;27566;-67
2022/11/21 10:22:26;;;;;;;6.40;2.70;;;6.80;99.90;;;;;;477242;249;27493;-66
2022/11/21 10:24:27;;;;;;;4.75;2.60;;;6.80;99.90;;;;;;477211;249;28091;-66
2022/11/21 10:26:28;;;;;;;6.40;2.45;;;6.70;99.90;;;;;;477254;249;28094;-69
2022/11/21 10:28:29;;;;;;;3.95;2.75;;;6.70;99.90;;;;;;477253;249;27505;-66
2022/11/21 10:30:31;;;;;;;8.35;3.33;;;6.70;99.90;;;;;;477250;249;27560;-65
2022/11/21 10:32:32;;;;;;;5.55;3.28;;;6.70;99.90;;;;;;477223;249;27520;-65
2022/11/21 10:34:33;;;;;;;3.33;2.75;;;6.70;99.90;;;;;;477232;249;27624;-66
2022/11/21 10:36:35;;;;;;;9.00;2.85;;;6.80;99.90;;;;;;477252;249;27667;-69
2022/11/21 10:38:36;;;;;;;4.07;3.65;;;6.80;99.90;;;;;;477192;249;28020;-66
2022/11/21 10:40:37;;;;;;;4.85;2.80;;;6.70;99.90;;;;;;477257;249;28035;-68
2022/11/21 10:42:38;;;;;;;4.15;3.25;;;6.80;99.90;;;;;;477241;249;27579;-66
2022/11/21 10:46:59;;;;;;;3.55;2.92;;;6.90;99.90;;;;;;477293;249;27642;-67
2022/11/21 10:49:00;;;;;;;4.18;3.22;;;6.90;99.90;;;;;;477272;249;27621;-66
2022/11/21 10:51:01;;;;;;;8.85;3.10;;;7.00;99.90;;;;;;477234;249;27725;-67
2022/11/21 10:54:31;;;;;;;4.27;2.97;;;7.10;99.90;;;;;;477221;249;27567;-66
2022/11/21 10:55:04;;;;;;;4.75;3.10;;;7.10;99.90;;;;;;475665;249;29363;-66
2022/11/21 10:57:05;;;;;;;3.60;3.28;;;7.20;99.90;;;;;;477270;249;28015;-70
2022/11/21 10:59:06;;;;;;;7.85;3.00;;;7.20;99.90;;;;;;477237;249;27541;-66